createdAt,value
2022-09-04T00:01:40.065Z,90.00
2022-09-04T00:04:22.767Z,90.00
2022-09-04T00:07:03.173Z,97.50
2022-09-04T00:09:37.612Z,90.40
2022-09-04T00:12:08.028Z,94.60
2022-09-04T00:14:42.835Z,90.60
2022-09-04T00:17:16.149Z,90.70
2022-09-04T00:19:53.215Z,90.80
2022-09-04T00:22:28.994Z,90.90
2022-09-04T00:25:05.971Z,90.90
2022-09-04T00:27:43.632Z,91.10
2022-09-04T00:30:15.237Z,91.30
2022-09-04T00:32:49.315Z,91.30
2022-09-04T00:35:21.222Z,91.40
2022-09-04T00:37:53.202Z,91.50
2022-09-04T00:40:25.834Z,91.60
2022-09-04T00:43:25.835Z,91.70
2022-09-04T00:46:07.300Z,91.90
2022-09-04T00:49:02.183Z,92.00
2022-09-04T00:51:38.937Z,92.10
2022-09-04T00:54:27.400Z,99.90
2022-09-04T00:57:58.927Z,92.70
2022-09-04T01:00:27.224Z,92.50
2022-09-04T01:03:44.436Z,99.90
2022-09-04T01:06:31.490Z,92.70
2022-09-04T01:09:17.775Z,92.80
2022-09-04T01:11:53.426Z,92.80
2022-09-04T01:14:28.863Z,92.90
2022-09-04T01:17:05.956Z,93.00
2022-09-04T01:19:46.855Z,93.00
2022-09-04T01:22:35.881Z,99.90
2022-09-04T01:25:20.356Z,99.90
2022-09-04T01:27:55.119Z,93.30
2022-09-04T01:30:22.675Z,93.40
2022-09-04T01:33:04.557Z,93.50
2022-09-04T01:35:39.012Z,93.50
2022-09-04T01:38:14.350Z,93.40
2022-09-04T01:40:47.225Z,93.70
2022-09-04T01:43:18.000Z,93.50
2022-09-04T01:46:05.832Z,99.90
2022-09-04T01:48:41.489Z,93.50
2022-09-04T01:51:17.084Z,93.60
2022-09-04T01:53:51.207Z,93.70
2022-09-04T01:58:55.797Z,93.80
2022-09-04T02:01:31.305Z,93.80
2022-09-04T02:04:07.431Z,94.10
2022-09-04T02:06:43.977Z,94.10
2022-09-04T02:09:25.918Z,94.30
2022-09-04T02:12:02.849Z,94.30
2022-09-04T02:14:46.967Z,94.20
2022-09-04T02:17:19.284Z,94.30
2022-09-04T02:22:43.103Z,94.50
2022-09-04T02:25:20.531Z,94.60
2022-09-04T02:27:56.911Z,94.60
2022-09-04T02:30:24.396Z,94.60
2022-09-04T02:33:00.350Z,94.70
2022-09-04T02:35:34.521Z,94.90
2022-09-04T02:38:14.862Z,95.10
2022-09-04T02:40:49.459Z,95.10
2022-09-04T02:43:34.806Z,94.90
2022-09-04T02:46:07.192Z,95.00
2022-09-04T02:48:59.626Z,99.90
2022-09-04T02:51:41.079Z,95.00
2022-09-04T02:54:14.433Z,95.10
2022-09-04T02:56:52.086Z,95.10
2022-09-04T02:59:34.780Z,95.10
2022-09-04T03:02:04.988Z,95.20
2022-09-04T03:04:39.545Z,95.10
2022-09-04T03:07:13.302Z,95.30
2022-09-04T03:09:45.871Z,95.20
2022-09-04T03:12:26.199Z,99.90
2022-09-04T03:15:00.954Z,95.60
2022-09-04T03:17:36.363Z,95.60
2022-09-04T03:20:08.710Z,95.70
2022-09-04T03:22:43.686Z,95.70
2022-09-04T03:25:31.455Z,96.70
2022-09-04T03:30:27.287Z,95.90
2022-09-04T03:33:05.918Z,99.90
2022-09-04T03:35:42.298Z,96.30
2022-09-04T03:38:19.729Z,96.10
2022-09-04T03:40:56.928Z,96.30
2022-09-04T03:43:53.796Z,99.90
2022-09-04T03:46:33.726Z,96.50
2022-09-04T03:49:14.316Z,96.50
2022-09-04T03:51:53.140Z,96.50
2022-09-04T03:54:36.003Z,96.90
2022-09-04T03:57:20.555Z,96.80
2022-09-04T03:59:59.845Z,97.00
2022-09-04T04:02:38.281Z,97.00
2022-09-04T04:05:39.752Z,97.30
2022-09-04T04:08:36.927Z,98.10
2022-09-04T04:11:19.383Z,97.50
2022-09-04T04:14:11.944Z,97.60
2022-09-04T04:16:56.155Z,97.70
2022-09-04T04:19:43.945Z,99.90
2022-09-04T04:22:45.385Z,98.10
2022-09-04T04:25:32.539Z,99.00
2022-09-04T04:28:22.041Z,98.40
2022-09-04T04:30:51.697Z,98.40
2022-09-04T04:33:31.966Z,98.70
2022-09-04T04:36:09.340Z,98.60
2022-09-04T04:38:52.719Z,98.80
2022-09-04T04:41:30.179Z,98.80
2022-09-04T04:44:06.761Z,98.80
2022-09-04T04:46:53.720Z,99.00
2022-09-04T04:49:39.538Z,99.90
2022-09-04T04:52:22.945Z,99.90
2022-09-04T04:55:15.307Z,99.90
2022-09-04T04:57:52.639Z,99.30
2022-09-04T05:00:27.354Z,99.90
2022-09-04T05:03:04.004Z,99.30
2022-09-04T05:06:00.732Z,99.90
2022-09-04T05:08:37.103Z,99.30
2022-09-04T05:11:10.693Z,98.80
2022-09-04T05:13:51.558Z,98.50
2022-09-04T05:16:26.020Z,97.90
2022-09-04T05:18:59.237Z,97.50
2022-09-04T05:21:34.845Z,97.30
2022-09-04T05:24:05.197Z,97.30
2022-09-04T05:26:43.518Z,96.40
2022-09-04T05:29:17.000Z,96.80
2022-09-04T05:31:51.718Z,96.60
2022-09-04T05:34:33.401Z,96.40
2022-09-04T05:37:10.151Z,96.90
2022-09-04T05:39:53.104Z,97.10
2022-09-04T05:42:47.489Z,96.80
2022-09-04T05:45:24.571Z,97.30
2022-09-04T05:48:04.704Z,97.60
2022-09-04T05:50:57.365Z,97.30
2022-09-04T05:53:47.970Z,97.10
2022-09-04T05:56:38.934Z,97.10
2022-09-04T05:59:31.135Z,99.90
2022-09-04T06:02:15.547Z,97.70
2022-09-04T06:05:12.637Z,99.30
2022-09-04T06:07:50.640Z,97.50
2022-09-04T06:10:23.974Z,97.60
2022-09-04T06:13:13.205Z,99.90
2022-09-04T06:15:52.279Z,96.90
2022-09-04T06:18:36.214Z,97.10
2022-09-04T06:21:26.373Z,97.60
2022-09-04T06:24:13.963Z,99.90
2022-09-04T06:26:57.328Z,96.80
2022-09-04T06:29:41.829Z,96.90
2022-09-04T06:32:45.047Z,96.40
2022-09-04T06:38:03.835Z,97.30
2022-09-04T06:40:44.706Z,97.40
2022-09-04T06:43:29.449Z,99.90
2022-09-04T06:46:06.321Z,97.70
2022-09-04T06:48:47.044Z,97.50
2022-09-04T06:51:42.173Z,98.20
2022-09-04T06:54:18.673Z,98.00
2022-09-04T06:57:02.345Z,98.10
2022-09-04T07:00:02.266Z,97.50
2022-09-04T07:02:58.629Z,97.60
2022-09-04T07:05:31.545Z,97.30
2022-09-04T07:08:09.555Z,97.50
2022-09-04T07:10:41.572Z,97.80
2022-09-04T07:13:36.454Z,97.40
2022-09-04T07:16:34.731Z,97.70
2022-09-04T07:19:25.838Z,97.90
2022-09-04T07:22:10.887Z,98.30
2022-09-04T07:24:59.706Z,98.10
2022-09-04T07:27:39.954Z,97.90
2022-09-04T07:30:12.516Z,97.50
2022-09-04T07:32:45.369Z,97.50
2022-09-04T07:35:20.408Z,97.70
2022-09-04T07:37:57.800Z,97.10
2022-09-04T07:40:48.447Z,96.20
2022-09-04T07:43:23.207Z,97.00
2022-09-04T07:46:04.616Z,96.30
2022-09-04T07:48:57.501Z,96.60
2022-09-04T07:51:35.609Z,97.50
2022-09-04T07:54:23.793Z,97.40
2022-09-04T07:57:09.342Z,97.00
2022-09-04T08:00:00.493Z,96.80
2022-09-04T08:02:54.919Z,96.70
2022-09-04T08:05:29.761Z,96.10
2022-09-04T08:08:39.240Z,95.30
2022-09-04T08:11:29.407Z,94.60
2022-09-04T08:14:16.161Z,95.10
2022-09-04T08:16:55.307Z,95.50
2022-09-04T08:19:33.736Z,94.50
2022-09-04T08:22:06.015Z,93.20
2022-09-04T08:25:00.327Z,99.90
2022-09-04T08:27:51.224Z,90.20
2022-09-04T08:33:09.499Z,85.70
2022-09-04T08:35:47.308Z,82.20
2022-09-04T08:38:33.265Z,79.70
2022-09-04T08:41:26.874Z,81.50
2022-09-04T08:44:33.908Z,80.40
2022-09-04T08:47:34.888Z,80.50
2022-09-04T08:50:33.689Z,79.80
2022-09-04T08:53:43.783Z,81.40
2022-09-04T08:56:23.656Z,74.80
2022-09-04T08:59:28.840Z,73.20
2022-09-04T09:02:27.327Z,70.00
2022-09-04T09:05:23.087Z,71.50
2022-09-04T09:08:21.850Z,74.20
2022-09-04T09:11:29.246Z,73.70
2022-09-04T09:14:29.379Z,87.50
2022-09-04T09:17:11.880Z,74.20
2022-09-04T09:19:44.674Z,72.80
2022-09-04T09:22:36.204Z,73.30
2022-09-04T09:25:21.695Z,69.40
2022-09-04T09:28:35.845Z,69.60
2022-09-04T09:31:38.703Z,70.10
2022-09-04T09:34:24.552Z,74.20
2022-09-04T09:37:13.543Z,74.10
2022-09-04T09:40:24.324Z,90.80
2022-09-04T09:43:26.223Z,71.10
2022-09-04T09:46:27.069Z,71.60
2022-09-04T09:49:25.102Z,73.20
2022-09-04T09:52:17.586Z,73.20
2022-09-04T09:55:21.233Z,73.60
2022-09-04T09:58:23.728Z,75.10
2022-09-04T10:01:08.435Z,74.20
2022-09-04T10:04:10.047Z,79.60
2022-09-04T10:07:19.369Z,71.90
2022-09-04T10:10:17.509Z,72.50
2022-09-04T10:13:14.476Z,72.90
2022-09-04T10:18:58.516Z,71.40
2022-09-04T10:22:01.978Z,73.20
2022-09-04T10:25:05.482Z,71.90
2022-09-04T10:28:08.323Z,70.50
2022-09-04T10:30:59.226Z,71.30
2022-09-04T10:33:38.153Z,79.20
2022-09-04T10:36:18.118Z,70.10
2022-09-04T10:42:01.962Z,74.40
2022-09-04T10:44:50.140Z,70.40
2022-09-04T10:47:28.370Z,70.40
2022-09-04T10:50:20.302Z,70.30
2022-09-04T10:53:22.221Z,80.30
2022-09-04T10:56:05.251Z,67.50
2022-09-04T11:01:56.621Z,69.90
2022-09-04T11:04:54.741Z,69.30
2022-09-04T11:07:44.111Z,69.70
2022-09-04T11:10:30.743Z,69.10
2022-09-04T11:13:37.400Z,89.30
2022-09-04T11:16:38.447Z,69.70
2022-09-04T11:19:36.370Z,71.10
2022-09-04T11:22:35.647Z,70.70
2022-09-04T11:25:32.500Z,90.50
2022-09-04T11:28:19.745Z,91.80
2022-09-04T11:30:59.316Z,72.90
2022-09-04T11:34:06.586Z,75.50
2022-09-04T11:37:03.847Z,71.30
2022-09-04T11:40:08.585Z,69.00
2022-09-04T11:42:46.764Z,70.80
2022-09-04T11:45:41.279Z,68.60
2022-09-04T11:48:42.649Z,84.40
2022-09-04T11:51:39.792Z,63.30
2022-09-04T11:54:34.115Z,82.10
2022-09-04T11:57:19.505Z,64.90
2022-09-04T12:00:11.842Z,66.30
2022-09-04T12:03:13.869Z,67.00
2022-09-04T12:05:58.053Z,68.80
2022-09-04T12:08:47.210Z,67.80
2022-09-04T12:11:50.807Z,68.10
2022-09-04T12:14:42.182Z,67.90
2022-09-04T12:17:46.825Z,68.60
2022-09-04T12:20:54.543Z,72.10
2022-09-04T12:23:37.769Z,68.30
2022-09-04T12:26:29.895Z,88.60
2022-09-04T12:29:23.066Z,71.70
2022-09-04T12:32:25.321Z,71.60
2022-09-04T12:35:58.241Z,90.90
2022-09-04T12:43:42.338Z,71.90
2022-09-04T12:46:21.592Z,72.40
2022-09-04T12:49:01.653Z,72.00
2022-09-04T12:51:36.371Z,71.80
2022-09-04T12:54:20.283Z,71.50
2022-09-04T12:56:58.121Z,71.30
2022-09-04T12:59:46.648Z,72.00
2022-09-04T13:02:30.904Z,71.00
2022-09-04T13:05:06.473Z,70.60
2022-09-04T13:07:45.938Z,70.30
2022-09-04T13:10:23.943Z,69.60
2022-09-04T13:13:00.300Z,70.10
2022-09-04T13:15:40.395Z,70.40
2022-09-04T13:18:20.785Z,69.60
2022-09-04T13:21:01.328Z,69.50
2022-09-04T13:23:51.545Z,68.50
2022-09-04T13:26:30.302Z,70.00
2022-09-04T13:29:14.371Z,69.40
2022-09-04T13:31:58.793Z,68.10
2022-09-04T13:34:37.367Z,68.30
2022-09-04T13:37:11.371Z,68.30
2022-09-04T13:40:11.950Z,89.80
2022-09-04T13:43:13.697Z,69.20
2022-09-04T13:45:45.275Z,71.10
2022-09-04T13:48:15.254Z,69.00
2022-09-04T13:50:46.255Z,68.60
2022-09-04T13:53:19.128Z,68.00
2022-09-04T13:55:51.726Z,69.20
2022-09-04T13:58:20.799Z,68.80
2022-09-04T14:00:51.845Z,68.10
2022-09-04T14:03:32.109Z,68.80
2022-09-04T14:06:03.470Z,68.40
2022-09-04T14:11:16.582Z,68.10
2022-09-04T14:14:02.619Z,68.70
2022-09-04T14:16:33.407Z,68.90
2022-09-04T14:19:16.672Z,70.40
2022-09-04T14:22:05.332Z,68.80
2022-09-04T14:24:41.390Z,69.00
2022-09-04T14:27:13.854Z,67.70
2022-09-04T14:29:56.277Z,67.90
2022-09-04T14:32:31.570Z,67.90
2022-09-04T14:35:07.798Z,68.50
2022-09-04T14:38:01.646Z,67.90
2022-09-04T14:40:33.201Z,64.70
2022-09-04T14:43:08.568Z,68.40
2022-09-04T14:46:03.974Z,67.80
2022-09-04T14:48:36.493Z,68.60
2022-09-04T14:56:32.011Z,66.90
2022-09-04T14:59:09.754Z,66.50
2022-09-04T15:01:54.109Z,66.80
2022-09-04T15:04:24.660Z,67.20
2022-09-04T15:07:10.687Z,67.90
2022-09-04T15:09:40.794Z,68.00
2022-09-04T15:12:25.930Z,68.60
2022-09-04T15:15:03.494Z,67.80
2022-09-04T15:17:31.722Z,66.50
2022-09-04T15:20:07.103Z,67.20
2022-09-04T15:22:38.811Z,67.90
2022-09-04T15:25:09.001Z,89.00
2022-09-04T15:27:43.821Z,69.00
2022-09-04T15:30:19.234Z,90.20
2022-09-04T15:32:47.888Z,68.60
2022-09-04T15:35:22.310Z,69.40
2022-09-04T15:37:51.555Z,68.80
2022-09-04T15:40:28.254Z,68.80
2022-09-04T15:43:03.535Z,69.00
2022-09-04T15:45:40.279Z,68.50
2022-09-04T15:48:29.057Z,67.70
2022-09-04T15:51:19.114Z,68.90
2022-09-04T15:53:53.919Z,68.20
2022-09-04T15:56:34.652Z,68.20
2022-09-04T15:59:11.610Z,67.80
2022-09-04T16:01:47.098Z,67.90
2022-09-04T16:04:22.746Z,68.20
2022-09-04T16:06:57.080Z,68.60
2022-09-04T16:09:30.962Z,68.50
2022-09-04T16:12:04.624Z,69.30
2022-09-04T16:14:39.951Z,68.90
2022-09-04T16:17:16.326Z,69.20
2022-09-04T16:19:53.565Z,69.60
2022-09-04T16:22:30.128Z,69.40
2022-09-04T16:25:10.042Z,69.60
2022-09-04T16:27:46.749Z,69.70
2022-09-04T16:30:30.434Z,70.10
2022-09-04T16:32:57.759Z,70.10
2022-09-04T16:35:28.151Z,70.20
2022-09-04T16:38:03.199Z,69.70
2022-09-04T16:40:33.937Z,69.90
2022-09-04T16:43:11.405Z,70.60
2022-09-04T16:45:44.782Z,70.80
2022-09-04T16:48:34.119Z,70.70
2022-09-04T16:51:09.846Z,71.30
2022-09-04T16:54:04.640Z,71.60
2022-09-04T16:56:37.719Z,71.20
2022-09-04T16:59:24.920Z,88.60
2022-09-04T17:02:00.329Z,72.00
2022-09-04T17:04:39.625Z,72.40
2022-09-04T17:07:16.474Z,72.10
2022-09-04T17:09:58.046Z,72.70
2022-09-04T17:12:46.540Z,71.60
2022-09-04T17:15:25.331Z,72.50
2022-09-04T17:20:47.161Z,80.30
2022-09-04T17:29:02.864Z,72.80
2022-09-04T17:29:11.656Z,73.20
2022-09-04T17:31:53.587Z,73.50
2022-09-04T17:40:32.020Z,74.00
2022-09-04T17:40:50.009Z,74.40
2022-09-04T17:41:34.689Z,75.30
2022-09-04T17:43:27.347Z,75.30
2022-09-04T17:46:08.052Z,75.30
2022-09-04T17:53:41.204Z,76.10
2022-09-04T17:56:15.955Z,75.80
2022-09-04T18:01:21.917Z,76.40
2022-09-04T18:04:22.020Z,76.70
2022-09-04T18:06:57.466Z,78.20
2022-09-04T18:09:33.446Z,77.10
2022-09-04T18:12:10.331Z,77.00
2022-09-04T18:14:44.612Z,77.50
2022-09-04T18:17:20.445Z,77.50
2022-09-04T18:19:48.538Z,78.00
2022-09-04T18:22:31.979Z,94.70
2022-09-04T18:25:15.743Z,78.10
2022-09-04T18:28:11.812Z,79.10
2022-09-04T18:37:06.913Z,79.60
2022-09-04T18:37:21.504Z,82.10
2022-09-04T18:37:44.860Z,79.60
2022-09-04T18:40:08.963Z,79.40
2022-09-04T18:50:20.804Z,79.70
2022-09-04T18:50:25.174Z,79.90
2022-09-04T18:50:47.270Z,79.80
2022-09-04T18:51:29.813Z,80.40
2022-09-04T18:54:05.954Z,80.30
2022-09-04T18:56:41.304Z,80.80
2022-09-04T18:59:15.000Z,80.90
2022-09-04T19:01:44.944Z,81.10
2022-09-04T19:04:37.373Z,96.20
2022-09-04T19:07:09.596Z,81.30
2022-09-04T19:09:55.909Z,83.20
2022-09-04T19:12:35.712Z,81.70
2022-09-04T19:15:49.091Z,81.70
2022-09-04T19:21:14.879Z,82.10
2022-09-04T19:23:47.364Z,82.30
2022-09-04T19:26:27.297Z,82.70
2022-09-04T19:29:02.057Z,82.80
2022-09-04T19:31:34.975Z,82.70
2022-09-04T19:34:10.818Z,82.90
2022-09-04T19:36:44.734Z,83.20
2022-09-04T19:46:07.511Z,97.00
2022-09-04T19:46:07.544Z,83.70
2022-09-04T19:46:15.612Z,84.10
2022-09-04T19:48:19.950Z,84.20
2022-09-04T19:53:22.726Z,84.20
2022-09-04T19:53:51.883Z,84.70
2022-09-04T19:56:26.667Z,84.70
2022-09-04T19:58:58.898Z,84.80
2022-09-04T20:07:18.047Z,85.50
2022-09-04T20:09:49.528Z,85.60
2022-09-04T20:12:34.499Z,85.80
2022-09-04T20:15:10.986Z,86.00
2022-09-04T20:17:59.044Z,86.10
2022-09-04T20:20:38.511Z,86.20
2022-09-04T20:23:34.218Z,86.40
2022-09-04T20:28:51.602Z,86.70
2022-09-04T20:31:44.391Z,87.30
2022-09-04T20:34:29.408Z,87.20
2022-09-04T20:37:18.661Z,87.20
2022-09-04T20:39:52.720Z,87.60
2022-09-04T20:42:26.912Z,87.90
2022-09-04T20:48:22.581Z,87.90
2022-09-04T20:52:42.392Z,88.00
2022-09-04T20:52:58.852Z,88.10
2022-09-04T20:53:51.686Z,88.50
2022-09-04T20:57:29.752Z,88.70
2022-09-04T21:03:14.434Z,88.70
2022-09-04T21:03:22.930Z,89.10
2022-09-04T21:05:32.664Z,89.40
2022-09-04T21:08:07.670Z,89.50
2022-09-04T21:13:14.212Z,89.40
2022-09-04T21:15:56.972Z,89.80
2022-09-04T21:19:27.565Z,89.90
2022-09-04T21:21:54.654Z,90.00
2022-09-04T21:24:51.503Z,90.10
2022-09-04T21:27:54.289Z,99.90
2022-09-04T21:30:52.592Z,90.30
2022-09-04T21:33:30.589Z,90.40
2022-09-04T21:36:25.468Z,90.50
2022-09-04T21:39:30.449Z,99.90
2022-09-04T21:42:16.761Z,90.60
2022-09-04T21:45:13.354Z,90.70
2022-09-04T21:48:05.584Z,99.90
2022-09-04T21:50:58.881Z,91.00
2022-09-04T21:54:09.952Z,99.90
2022-09-04T22:02:29.605Z,90.90
2022-09-04T22:02:46.276Z,94.30
2022-09-04T22:03:25.585Z,91.20
2022-09-04T22:06:09.780Z,91.10
2022-09-04T22:13:29.758Z,91.50
2022-09-04T22:13:45.998Z,96.70
2022-09-04T22:14:48.309Z,91.20
2022-09-04T22:17:29.856Z,91.30
2022-09-04T22:20:20.707Z,91.20
2022-09-04T22:23:23.168Z,99.50
2022-09-04T22:26:23.655Z,91.30
2022-09-04T22:29:06.685Z,91.40
2022-09-04T22:32:27.349Z,91.50
2022-09-04T22:35:35.572Z,91.60
2022-09-04T22:38:45.370Z,91.70
2022-09-04T22:41:39.305Z,91.70
2022-09-04T22:44:20.626Z,91.90
2022-09-04T22:47:25.016Z,91.90
2022-09-04T22:50:16.923Z,92.00
2022-09-04T22:52:58.961Z,92.00
2022-09-04T22:56:09.835Z,92.40
2022-09-04T22:58:47.553Z,92.30
2022-09-04T23:01:39.049Z,92.40
2022-09-04T23:04:19.629Z,92.40
2022-09-04T23:09:28.277Z,92.40
2022-09-04T23:13:51.607Z,92.50
2022-09-04T23:13:59.884Z,92.60
2022-09-04T23:16:51.267Z,92.70
2022-09-04T23:26:33.036Z,92.70
2022-09-04T23:26:46.045Z,92.90
2022-09-04T23:26:58.679Z,92.80
2022-09-04T23:29:11.961Z,93.00
2022-09-04T23:32:09.488Z,93.00
2022-09-04T23:35:13.415Z,93.20
2022-09-04T23:38:00.010Z,93.10
2022-09-04T23:40:39.360Z,93.20
2022-09-04T23:43:35.034Z,93.20
2022-09-04T23:46:31.597Z,93.20
2022-09-04T23:49:37.026Z,99.90
2022-09-04T23:52:15.027Z,93.50
2022-09-04T23:55:17.080Z,99.90
2022-09-04T23:57:50.316Z,93.60
